createdAt,value
2023-05-13T00:02:46.094Z,11.80
2023-05-13T00:05:53.755Z,11.67
2023-05-13T00:09:00.739Z,11.59
2023-05-13T00:12:09.104Z,11.61
2023-05-13T00:15:16.784Z,11.65
2023-05-13T00:18:24.007Z,11.67
2023-05-13T00:21:32.351Z,11.68
2023-05-13T00:24:40.063Z,11.67
2023-05-13T00:27:47.043Z,11.59
2023-05-13T00:30:54.589Z,11.56
2023-05-13T00:34:03.604Z,11.53
2023-05-13T00:37:10.456Z,11.52
2023-05-13T00:40:13.079Z,11.62
2023-05-13T00:43:21.919Z,11.68
2023-05-13T00:46:29.873Z,11.54
2023-05-13T00:49:36.737Z,11.44
2023-05-13T00:52:46.304Z,11.36
2023-05-13T00:55:53.694Z,11.27
2023-05-13T00:59:00.654Z,11.17
2023-05-13T01:02:10.827Z,11.09
2023-05-13T01:05:17.807Z,10.95
2023-05-13T01:08:26.093Z,10.91
2023-05-13T01:11:33.768Z,10.86
2023-05-13T01:14:43.451Z,10.84
2023-05-13T01:16:55.814Z,10.86
2023-05-13T01:19:54.001Z,10.86
2023-05-13T01:23:03.907Z,10.89
2023-05-13T01:26:12.212Z,10.92
2023-05-13T01:29:19.423Z,10.95
2023-05-13T01:32:26.290Z,10.94
2023-05-13T01:35:35.610Z,10.91
2023-05-13T01:38:43.312Z,10.92
2023-05-13T01:41:50.602Z,10.89
2023-05-13T01:44:59.974Z,10.86
2023-05-13T01:48:08.278Z,10.83
2023-05-13T01:51:15.545Z,10.77
2023-05-13T01:54:24.250Z,10.74
2023-05-13T01:57:32.166Z,10.71
2023-05-13T02:00:38.923Z,10.71
2023-05-13T02:03:48.250Z,10.73
2023-05-13T02:06:55.433Z,10.73
2023-05-13T02:10:03.097Z,10.73
2023-05-13T02:13:11.740Z,10.68
2023-05-13T02:16:20.226Z,10.63
2023-05-13T02:19:27.510Z,10.59
2023-05-13T02:22:35.203Z,10.58
2023-05-13T02:25:43.905Z,10.55
2023-05-13T02:28:51.213Z,10.52
2023-05-13T02:31:58.245Z,10.44
2023-05-13T02:35:07.594Z,10.37
2023-05-13T02:38:14.530Z,10.32
2023-05-13T02:41:22.727Z,10.21
2023-05-13T02:44:31.578Z,10.14
2023-05-13T02:47:38.827Z,10.14
2023-05-13T02:50:46.063Z,10.12
2023-05-13T02:53:55.530Z,10.09
2023-05-13T02:57:03.428Z,10.04
2023-05-13T03:00:10.355Z,10.01
2023-05-13T03:03:18.679Z,10.03
2023-05-13T03:06:27.331Z,10.04
2023-05-13T03:09:35.142Z,10.03
2023-05-13T03:12:42.467Z,10.03
2023-05-13T03:15:51.650Z,10.09
2023-05-13T03:18:58.925Z,10.14
2023-05-13T03:22:06.367Z,10.12
2023-05-13T03:25:14.742Z,10.12
2023-05-13T03:28:22.236Z,10.09
2023-05-13T03:31:29.740Z,10.07
2023-05-13T03:34:38.534Z,9.99
2023-05-13T03:37:45.767Z,10.01
2023-05-13T03:40:53.551Z,10.04
2023-05-13T03:44:01.042Z,10.00
2023-05-13T03:47:10.196Z,9.94
2023-05-13T03:50:17.649Z,9.94
2023-05-13T03:53:24.996Z,9.91
2023-05-13T03:56:34.022Z,9.88
2023-05-13T03:59:42.144Z,9.86
2023-05-13T04:02:49.707Z,9.85
2023-05-13T04:05:59.079Z,9.91
2023-05-13T04:09:06.546Z,9.94
2023-05-13T04:12:13.916Z,10.04
2023-05-13T04:15:24.055Z,10.15
2023-05-13T04:18:31.313Z,10.26
2023-05-13T04:21:38.789Z,10.33
2023-05-13T04:24:47.162Z,10.37
2023-05-13T04:27:54.901Z,10.42
2023-05-13T04:31:01.845Z,10.44
2023-05-13T04:34:10.276Z,10.46
2023-05-13T04:37:19.191Z,10.53
2023-05-13T04:40:26.954Z,10.55
2023-05-13T04:43:34.740Z,10.70
2023-05-13T04:46:43.158Z,10.89
2023-05-13T04:49:51.317Z,10.96
2023-05-13T04:52:58.670Z,11.09
2023-05-13T04:56:07.871Z,11.10
2023-05-13T04:59:14.688Z,11.25
2023-05-13T05:02:22.908Z,11.43
2023-05-13T05:05:31.638Z,11.54
2023-05-13T05:08:39.454Z,11.67
2023-05-13T05:11:46.621Z,11.77
2023-05-13T05:14:54.420Z,11.85
2023-05-13T05:18:04.265Z,11.90
2023-05-13T05:21:12.330Z,11.97
2023-05-13T05:24:19.937Z,12.08
2023-05-13T05:27:29.443Z,12.19
2023-05-13T05:30:36.972Z,12.31
2023-05-13T05:33:44.667Z,12.41
2023-05-13T05:36:53.867Z,12.52
2023-05-13T05:40:00.963Z,12.63
2023-05-13T05:43:08.253Z,12.71
2023-05-13T05:46:16.596Z,12.82
2023-05-13T05:49:24.365Z,12.89
2023-05-13T05:52:31.569Z,12.93
2023-05-13T05:55:39.319Z,13.03
2023-05-13T05:58:40.674Z,13.18
2023-05-13T06:01:41.730Z,13.33
2023-05-13T06:04:48.713Z,13.43
2023-05-13T06:07:58.226Z,13.54
2023-05-13T06:11:05.884Z,13.63
2023-05-13T06:14:13.719Z,13.71
2023-05-13T06:17:23.199Z,13.79
2023-05-13T06:20:30.424Z,13.83
2023-05-13T06:23:37.911Z,13.87
2023-05-13T06:26:46.878Z,14.01
2023-05-13T06:29:54.873Z,14.06
2023-05-13T06:33:03.280Z,14.19
2023-05-13T06:36:10.892Z,14.32
2023-05-13T06:39:20.233Z,14.47
2023-05-13T06:42:27.594Z,14.61
2023-05-13T06:45:35.940Z,14.69
2023-05-13T06:48:44.791Z,14.81
2023-05-13T06:51:52.493Z,14.90
2023-05-13T06:55:00.483Z,15.08
2023-05-13T06:58:08.979Z,15.23
2023-05-13T07:01:16.613Z,15.27
2023-05-13T07:04:24.256Z,15.35
2023-05-13T07:07:33.182Z,15.43
2023-05-13T07:10:40.571Z,15.57
2023-05-13T07:13:48.618Z,15.64
2023-05-13T07:16:56.242Z,15.60
2023-05-13T07:20:05.221Z,15.70
2023-05-13T07:23:13.129Z,15.88
2023-05-13T07:26:20.992Z,16.06
2023-05-13T07:29:29.493Z,16.26
2023-05-13T07:32:37.572Z,16.50
2023-05-13T07:35:45.545Z,16.60
2023-05-13T07:38:54.377Z,16.59
2023-05-13T07:42:02.023Z,16.60
2023-05-13T07:45:09.932Z,16.67
2023-05-13T07:48:18.846Z,16.83
2023-05-13T07:51:27.179Z,16.85
2023-05-13T07:54:34.909Z,17.00
2023-05-13T07:57:44.204Z,17.15
2023-05-13T08:00:51.684Z,17.29
2023-05-13T08:03:59.308Z,17.46
2023-05-13T08:07:06.435Z,17.54
2023-05-13T08:10:08.009Z,17.69
2023-05-13T08:13:16.497Z,17.89
2023-05-13T08:16:23.861Z,18.12
2023-05-13T08:19:33.151Z,18.27
2023-05-13T08:22:41.236Z,18.40
2023-05-13T08:25:49.088Z,18.50
2023-05-13T08:28:58.932Z,18.70
2023-05-13T08:32:06.340Z,18.90
2023-05-13T08:35:15.127Z,18.94
2023-05-13T08:38:24.916Z,18.99
2023-05-13T08:41:31.997Z,18.94
2023-05-13T08:44:39.932Z,19.05
2023-05-13T08:47:47.508Z,19.23
2023-05-13T08:50:56.440Z,19.38
2023-05-13T08:54:04.193Z,19.57
2023-05-13T08:57:11.502Z,19.80
2023-05-13T09:00:21.927Z,19.90
2023-05-13T09:03:29.825Z,20.03
2023-05-13T09:06:37.714Z,20.20
2023-05-13T09:09:46.791Z,20.23
2023-05-13T09:12:54.633Z,20.31
2023-05-13T09:16:02.351Z,20.46
2023-05-13T09:19:11.406Z,20.58
2023-05-13T09:22:18.894Z,21.04
2023-05-13T09:25:26.892Z,21.01
2023-05-13T09:28:35.461Z,21.16
2023-05-13T09:31:44.836Z,21.35
2023-05-13T09:34:52.928Z,21.32
2023-05-13T09:38:01.216Z,21.41
2023-05-13T09:41:10.423Z,21.42
2023-05-13T09:44:18.292Z,21.38
2023-05-13T09:47:26.163Z,21.61
2023-05-13T09:50:34.778Z,21.53
2023-05-13T09:53:42.790Z,21.63
2023-05-13T09:56:50.904Z,21.94
2023-05-13T10:00:00.156Z,22.01
2023-05-13T10:03:08.373Z,21.92
2023-05-13T10:06:16.048Z,21.85
2023-05-13T10:09:23.469Z,22.02
2023-05-13T10:12:32.659Z,21.78
2023-05-13T10:15:41.206Z,21.32
2023-05-13T10:18:48.160Z,21.46
2023-05-13T10:21:57.433Z,21.74
2023-05-13T10:25:04.968Z,21.99
2023-05-13T10:28:13.192Z,21.85
2023-05-13T10:31:22.624Z,21.74
2023-05-13T10:34:30.569Z,21.91
2023-05-13T10:37:37.530Z,21.69
2023-05-13T10:40:46.823Z,21.82
2023-05-13T10:43:54.397Z,21.72
2023-05-13T10:47:01.776Z,21.76
2023-05-13T10:50:10.838Z,21.71
2023-05-13T10:53:18.926Z,21.76
2023-05-13T10:56:25.950Z,22.16
2023-05-13T10:59:34.193Z,22.69
2023-05-13T11:02:43.734Z,23.11
2023-05-13T11:05:51.539Z,23.53
2023-05-13T11:08:58.918Z,23.76
2023-05-13T11:12:08.706Z,23.71
2023-05-13T11:15:16.274Z,23.39
2023-05-13T11:18:23.791Z,23.14
2023-05-13T11:21:33.500Z,22.80
2023-05-13T11:24:40.963Z,22.56
2023-05-13T11:27:49.152Z,22.56
2023-05-13T11:30:57.982Z,22.60
2023-05-13T11:34:05.404Z,22.50
2023-05-13T11:37:13.062Z,22.27
2023-05-13T11:40:21.294Z,21.63
2023-05-13T11:43:30.363Z,21.42
2023-05-13T11:46:38.413Z,21.53
2023-05-13T11:49:45.952Z,21.50
2023-05-13T11:52:54.852Z,21.50
2023-05-13T11:56:02.555Z,21.94
2023-05-13T11:59:10.608Z,22.22
2023-05-13T12:02:19.792Z,22.52
2023-05-13T12:05:28.207Z,22.78
2023-05-13T12:08:36.010Z,22.90
2023-05-13T12:11:45.405Z,22.90
2023-05-13T12:14:53.268Z,22.83
2023-05-13T12:18:00.803Z,22.71
2023-05-13T12:21:08.300Z,23.12
2023-05-13T12:24:17.826Z,23.24
2023-05-13T12:27:25.878Z,23.19
2023-05-13T12:30:33.753Z,23.12
2023-05-13T12:33:43.158Z,23.26
2023-05-13T12:36:51.731Z,23.55
2023-05-13T12:39:59.340Z,23.58
2023-05-13T12:43:08.784Z,23.34
2023-05-13T12:46:16.746Z,23.02
2023-05-13T12:49:23.822Z,23.39
2023-05-13T12:52:33.502Z,23.52
2023-05-13T12:55:40.885Z,23.47
2023-05-13T12:58:48.724Z,23.92
2023-05-13T13:01:57.843Z,24.31
2023-05-13T13:05:06.737Z,24.31
2023-05-13T13:08:14.438Z,24.17
2023-05-13T13:11:21.734Z,23.80
2023-05-13T13:14:30.572Z,23.53
2023-05-13T13:17:38.146Z,23.24
2023-05-13T13:20:49.706Z,22.97
2023-05-13T13:23:47.984Z,22.68
2023-05-13T13:26:56.600Z,22.99
2023-05-13T13:30:03.571Z,23.40
2023-05-13T13:33:13.282Z,23.80
2023-05-13T13:36:20.324Z,23.87
2023-05-13T13:39:28.431Z,23.85
2023-05-13T13:42:44.124Z,23.47
2023-05-13T13:45:41.411Z,23.08
2023-05-13T13:48:48.713Z,22.80
2023-05-13T13:51:56.373Z,23.08
2023-05-13T13:55:04.789Z,23.68
2023-05-13T13:58:12.907Z,24.26
2023-05-13T14:01:20.437Z,24.79
2023-05-13T14:04:30.407Z,25.00
2023-05-13T14:07:38.035Z,24.75
2023-05-13T14:10:45.589Z,24.29
2023-05-13T14:13:54.272Z,24.16
2023-05-13T14:17:02.258Z,24.61
2023-05-13T14:20:10.711Z,24.95
2023-05-13T14:23:19.124Z,24.97
2023-05-13T14:26:27.093Z,24.82
2023-05-13T14:29:34.838Z,25.22
2023-05-13T14:32:42.452Z,25.31
2023-05-13T14:35:51.699Z,25.52
2023-05-13T14:38:59.895Z,25.72
2023-05-13T14:42:07.673Z,25.38
2023-05-13T14:45:18.602Z,24.98
2023-05-13T14:48:27.683Z,24.92
2023-05-13T14:51:35.014Z,24.92
2023-05-13T14:54:44.010Z,25.15
2023-05-13T14:57:52.204Z,25.42
2023-05-13T15:00:59.907Z,25.01
2023-05-13T15:04:09.175Z,24.94
2023-05-13T15:07:17.499Z,25.07
2023-05-13T15:10:25.077Z,25.31
2023-05-13T15:13:32.768Z,25.32
2023-05-13T15:16:42.493Z,25.54
2023-05-13T15:19:50.217Z,25.50
2023-05-13T15:22:58.537Z,25.43
2023-05-13T15:26:07.245Z,25.34
2023-05-13T15:29:15.050Z,25.17
2023-05-13T15:32:22.325Z,25.02
2023-05-13T15:35:31.348Z,24.88
2023-05-13T15:38:38.814Z,24.92
2023-05-13T15:41:45.852Z,24.64
2023-05-13T15:44:54.985Z,24.88
2023-05-13T15:48:02.253Z,24.88
2023-05-13T15:51:10.366Z,24.91
2023-05-13T15:54:19.618Z,25.10
2023-05-13T15:57:27.191Z,24.73
2023-05-13T16:00:35.222Z,24.57
2023-05-13T16:03:42.645Z,24.17
2023-05-13T16:06:51.458Z,23.53
2023-05-13T16:09:59.616Z,23.29
2023-05-13T16:13:07.465Z,23.49
2023-05-13T16:16:16.972Z,23.70
2023-05-13T16:19:24.471Z,23.65
2023-05-13T16:22:32.870Z,23.55
2023-05-13T16:25:41.775Z,23.77
2023-05-13T16:28:49.974Z,23.70
2023-05-13T16:31:58.113Z,23.79
2023-05-13T16:35:06.996Z,23.67
2023-05-13T16:38:14.879Z,23.57
2023-05-13T16:41:22.265Z,23.82
2023-05-13T16:44:30.257Z,23.72
2023-05-13T16:47:39.090Z,23.34
2023-05-13T16:50:47.013Z,23.01
2023-05-13T16:53:54.373Z,22.92
2023-05-13T16:57:03.781Z,22.86
2023-05-13T17:00:11.675Z,22.75
2023-05-13T17:03:19.206Z,22.86
2023-05-13T17:06:29.155Z,22.77
2023-05-13T17:09:39.644Z,22.56
2023-05-13T17:12:47.185Z,22.47
2023-05-13T17:15:56.264Z,22.47
2023-05-13T17:19:03.812Z,22.41
2023-05-13T17:22:12.393Z,22.39
2023-05-13T17:25:20.438Z,22.29
2023-05-13T17:28:29.859Z,22.04
2023-05-13T17:31:37.589Z,21.83
2023-05-13T17:34:45.628Z,21.72
2023-05-13T17:37:54.475Z,21.56
2023-05-13T17:41:02.301Z,21.41
2023-05-13T17:44:09.756Z,21.23
2023-05-13T17:47:19.591Z,21.05
2023-05-13T17:50:27.490Z,20.87
2023-05-13T17:53:36.146Z,20.69
2023-05-13T17:56:37.632Z,20.54
2023-05-13T17:59:45.222Z,20.42
2023-05-13T18:02:52.992Z,20.28
2023-05-13T18:06:01.157Z,20.15
2023-05-13T18:09:10.328Z,19.94
2023-05-13T18:12:17.732Z,19.69
2023-05-13T18:15:25.220Z,19.42
2023-05-13T18:18:34.452Z,19.11
2023-05-13T18:21:42.670Z,18.83
2023-05-13T18:24:50.907Z,18.61
2023-05-13T18:28:00.372Z,18.36
2023-05-13T18:31:07.810Z,18.17
2023-05-13T18:34:15.734Z,17.89
2023-05-13T18:37:26.164Z,17.71
2023-05-13T18:40:33.175Z,17.55
2023-05-13T18:43:41.497Z,17.26
2023-05-13T18:46:49.909Z,17.11
2023-05-13T18:49:57.887Z,16.98
2023-05-13T18:53:05.465Z,16.78
2023-05-13T18:56:13.404Z,16.68
2023-05-13T18:59:22.215Z,16.45
2023-05-13T19:02:29.461Z,16.30
2023-05-13T19:05:37.331Z,16.23
2023-05-13T19:08:46.572Z,16.07
2023-05-13T19:11:54.309Z,15.92
2023-05-13T19:15:02.089Z,15.81
2023-05-13T19:18:10.731Z,15.88
2023-05-13T19:21:19.095Z,15.97
2023-05-13T19:24:27.176Z,16.11
2023-05-13T19:27:36.974Z,16.33
2023-05-13T19:30:44.074Z,16.55
2023-05-13T19:33:51.659Z,16.71
2023-05-13T19:36:59.125Z,16.77
2023-05-13T19:40:08.571Z,16.83
2023-05-13T19:43:16.257Z,16.78
2023-05-13T19:46:24.223Z,16.77
2023-05-13T19:49:33.524Z,16.75
2023-05-13T19:52:40.638Z,16.74
2023-05-13T19:55:47.654Z,16.68
2023-05-13T19:58:56.427Z,16.65
2023-05-13T20:02:03.946Z,16.62
2023-05-13T20:05:11.697Z,16.58
2023-05-13T20:08:20.296Z,16.53
2023-05-13T20:11:28.359Z,16.48
2023-05-13T20:14:35.749Z,16.44
2023-05-13T20:17:43.859Z,16.41
2023-05-13T20:20:52.598Z,16.35
2023-05-13T20:24:00.069Z,16.30
2023-05-13T20:27:09.448Z,16.22
2023-05-13T20:30:18.899Z,16.11
2023-05-13T20:33:26.910Z,16.01
2023-05-13T20:36:34.999Z,15.99
2023-05-13T20:39:43.377Z,15.93
2023-05-13T20:42:50.856Z,15.85
2023-05-13T20:45:58.385Z,15.81
2023-05-13T20:49:07.068Z,15.74
2023-05-13T20:52:14.172Z,15.67
2023-05-13T20:55:22.186Z,15.67
2023-05-13T20:58:30.982Z,15.64
2023-05-13T21:01:38.467Z,15.66
2023-05-13T21:04:46.101Z,15.63
2023-05-13T21:07:53.193Z,15.60
2023-05-13T21:11:02.376Z,15.54
2023-05-13T21:14:10.008Z,15.45
2023-05-13T21:17:17.613Z,15.36
2023-05-13T21:20:26.539Z,15.30
2023-05-13T21:23:34.206Z,15.20
2023-05-13T21:26:41.437Z,15.09
2023-05-13T21:29:50.028Z,15.02
2023-05-13T21:32:58.305Z,14.95
2023-05-13T21:36:05.994Z,14.90
2023-05-13T21:39:15.101Z,14.86
2023-05-13T21:42:22.426Z,14.81
2023-05-13T21:45:29.768Z,14.80
2023-05-13T21:48:37.664Z,14.72
2023-05-13T21:51:46.929Z,14.67
2023-05-13T21:54:54.946Z,14.64
2023-05-13T21:58:01.910Z,14.60
2023-05-13T22:01:11.324Z,14.53
2023-05-13T22:04:19.003Z,14.53
2023-05-13T22:07:26.252Z,14.54
2023-05-13T22:10:35.532Z,14.56
2023-05-13T22:13:42.990Z,14.54
2023-05-13T22:17:04.815Z,14.52
2023-05-13T22:19:56.087Z,14.49
2023-05-13T22:23:03.631Z,14.47
2023-05-13T22:26:11.557Z,14.46
2023-05-13T22:29:19.371Z,14.44
2023-05-13T22:32:28.631Z,14.39
2023-05-13T22:35:36.095Z,14.37
2023-05-13T22:38:43.825Z,14.32
2023-05-13T22:41:52.123Z,14.24
2023-05-13T22:44:59.807Z,14.17
2023-05-13T22:48:06.642Z,14.09
2023-05-13T22:51:16.019Z,13.98
2023-05-13T22:54:24.029Z,13.94
2023-05-13T22:57:31.956Z,13.84
2023-05-13T23:00:41.228Z,13.74
2023-05-13T23:03:48.676Z,13.69
2023-05-13T23:06:56.513Z,13.62
2023-05-13T23:10:04.234Z,13.55
2023-05-13T23:13:13.460Z,13.52
2023-05-13T23:16:21.313Z,13.43
2023-05-13T23:19:29.407Z,13.41
2023-05-13T23:22:38.951Z,13.33
2023-05-13T23:25:46.597Z,13.22
2023-05-13T23:28:53.509Z,13.17
2023-05-13T23:32:04.477Z,13.15
2023-05-13T23:35:03.284Z,13.14
2023-05-13T23:38:10.107Z,13.02
2023-05-13T23:41:19.683Z,12.85
2023-05-13T23:44:27.600Z,12.75
2023-05-13T23:47:34.568Z,12.57
2023-05-13T23:50:42.220Z,12.38
2023-05-13T23:53:51.335Z,12.19
2023-05-13T23:56:59.787Z,12.05
